Time;durP1;ratioP1;P1;durP2;ratioP2;P2;SDS_P1;SDS_P2;PMS_P1;PMS_P2;Temp;Humidity;BMP_temperature;BMP_pressure;BME280_temperature;BME280_humidity;BME280_pressure;Samples;Min_cycle;Max_cycle;Signal;HPM_P1;HPM_P2
2023/01/04 00:00:19;;;;;;;;;;;8.10;99.90;;;;;;5033004;28;19973;-54
2023/01/04 00:02:45;;;;;;;;;;;8.10;99.90;;;;;;5033256;28;19909;-53
2023/01/04 00:05:10;;;;;;;;;;;8.10;99.90;;;;;;5033226;28;19909;-54
2023/01/04 00:07:36;;;;;;;;;;;8.20;99.90;;;;;;5032866;28;19944;-53
2023/01/04 00:10:02;;;;;;;;;;;8.20;99.90;;;;;;5032516;28;20019;-54
2023/01/04 00:12:27;;;;;;;;;;;8.30;99.90;;;;;;5032991;28;19913;-56
2023/01/04 00:14:53;;;;;;;;;;;8.40;99.90;;;;;;5032939;28;20022;-55
2023/01/04 00:17:18;;;;;;;;;;;8.30;99.90;;;;;;5032722;28;19909;-54
2023/01/04 00:19:44;;;;;;;;;;;8.30;99.90;;;;;;5032651;28;19908;-54
2023/01/04 00:22:10;;;;;;;;;;;8.40;99.90;;;;;;5032884;28;19909;-53
2023/01/04 00:24:35;;;;;;;;;;;8.40;99.90;;;;;;5032607;28;20281;-54
2023/01/04 00:27:01;;;;;;;;;;;8.40;99.90;;;;;;5032384;28;19916;-55
2023/01/04 00:29:27;;;;;;;;;;;8.40;99.90;;;;;;5032533;28;19912;-52
2023/01/04 00:31:52;;;;;;;;;;;8.40;99.90;;;;;;5032658;28;19919;-52
2023/01/04 00:34:18;;;;;;;;;;;8.40;99.90;;;;;;5032431;28;19966;-53
2023/01/04 00:36:44;;;;;;;;;;;8.40;99.90;;;;;;5030836;28;19909;-55
2023/01/04 00:39:13;;;;;;;;;;;8.40;99.90;;;;;;5030553;28;19935;-52
2023/01/04 00:41:40;;;;;;;;;;;8.40;99.90;;;;;;5032244;28;19909;-52
2023/01/04 00:44:06;;;;;;;;;;;8.30;99.90;;;;;;5032395;28;20123;-55
2023/01/04 00:46:32;;;;;;;;;;;8.30;99.90;;;;;;5032147;28;20167;-54
2023/01/04 00:48:58;;;;;;;;;;;8.20;99.90;;;;;;5031936;28;19951;-55
2023/01/04 00:51:24;;;;;;;;;;;8.20;99.90;;;;;;5032133;28;20285;-57
2023/01/04 00:53:50;;;;;;;;;;;8.20;99.90;;;;;;5031993;28;19909;-55
2023/01/04 00:56:16;;;;;;;;;;;8.10;99.90;;;;;;5031447;28;19909;-58
2023/01/04 00:58:41;;;;;;;;;;;8.10;99.90;;;;;;5031867;28;19960;-55
2023/01/04 01:01:07;;;;;;;;;;;8.00;99.90;;;;;;5031781;28;20262;-53
2023/01/04 01:03:33;;;;;;;;;;;7.90;99.90;;;;;;5031845;28;20357;-55
2023/01/04 01:06:03;;;;;;;;;;;7.90;99.90;;;;;;5031728;28;20421;-52
2023/01/04 01:08:28;;;;;;;;;;;7.80;99.90;;;;;;5031613;28;20282;-55
2023/01/04 01:10:54;;;;;;;;;;;7.80;99.90;;;;;;5031379;28;19913;-55
2023/01/04 01:13:21;;;;;;;;;;;7.80;99.90;;;;;;5031578;28;20003;-53
2023/01/04 01:15:47;;;;;;;;;;;7.80;99.90;;;;;;5031619;28;19955;-53
2023/01/04 01:18:13;;;;;;;;;;;7.80;99.90;;;;;;5031368;28;19913;-57
2023/01/04 01:20:44;;;;;;;;;;;7.70;99.90;;;;;;5031223;28;19909;-55
2023/01/04 01:23:13;;;;;;;;;;;7.70;99.90;;;;;;5031296;28;20313;-56
2023/01/04 01:25:40;;;;;;;;;;;7.70;99.90;;;;;;5031425;28;19967;-55
2023/01/04 01:28:05;;;;;;;;;;;7.70;99.90;;;;;;5031276;28;19988;-57
2023/01/04 01:30:31;;;;;;;;;;;7.60;99.90;;;;;;5031131;28;20032;-53
2023/01/04 01:32:56;;;;;;;;;;;7.70;99.90;;;;;;5031367;28;19916;-55
2023/01/04 01:35:22;;;;;;;;;;;7.70;99.90;;;;;;5031167;28;19928;-54
2023/01/04 01:37:48;;;;;;;;;;;7.60;99.90;;;;;;5030953;28;20071;-56
2023/01/04 01:40:13;;;;;;;;;;;7.60;99.90;;;;;;5031158;28;19944;-55
2023/01/04 01:42:39;;;;;;;;;;;7.70;99.90;;;;;;5031239;28;19955;-56
2023/01/04 01:45:09;;;;;;;;;;;7.60;99.90;;;;;;5031332;28;19917;-56
2023/01/04 01:47:45;;;;;;;;;;;7.70;99.90;;;;;;5030953;28;20307;-56
2023/01/04 01:50:25;;;;;;;;;;;7.70;99.90;;;;;;5030583;28;20424;-57
2023/01/04 01:52:51;;;;;;;;;;;7.70;99.90;;;;;;5031069;28;19909;-56
2023/01/04 01:55:18;;;;;;;;;;;7.70;99.90;;;;;;5031087;28;20274;-56
2023/01/04 01:57:45;;;;;;;;;;;7.70;99.90;;;;;;5030658;28;19920;-55
2023/01/04 02:00:12;;;;;;;;;;;7.70;99.90;;;;;;5030656;28;19992;-55
2023/01/04 02:02:52;;;;;;;;;;;7.80;99.90;;;;;;5030829;28;19970;-56
2023/01/04 02:05:18;;;;;;;;;;;7.70;99.90;;;;;;5031030;28;20369;-57
2023/01/04 02:07:44;;;;;;;;;;;7.70;99.90;;;;;;5046166;28;19916;-56
2023/01/04 02:10:10;;;;;;;;;;;7.70;99.90;;;;;;5033985;28;19913;-56
2023/01/04 02:12:36;;;;;;;;;;;7.60;99.90;;;;;;5034900;28;19915;-56
2023/01/04 02:15:01;;;;;;;;;;;7.70;99.90;;;;;;5034829;28;19992;-57
2023/01/04 02:17:27;;;;;;;;;;;7.70;99.90;;;;;;5033258;28;20259;-57
2023/01/04 02:20:01;;;;;;;;;;;7.60;99.90;;;;;;5034594;28;20421;-57
2023/01/04 02:22:35;;;;;;;;;;;7.60;99.90;;;;;;5034760;28;19916;-56
2023/01/04 02:25:14;;;;;;;;;;;7.60;99.90;;;;;;5034646;28;20270;-57
2023/01/04 02:27:54;;;;;;;;;;;7.60;99.90;;;;;;5034373;28;20277;-57
2023/01/04 02:30:38;;;;;;;;;;;7.60;99.90;;;;;;5034203;28;19913;-58
2023/01/04 02:33:03;;;;;;;;;;;7.60;99.90;;;;;;5034595;28;19909;-58
2023/01/04 02:35:35;;;;;;;;;;;7.60;99.90;;;;;;5034433;28;19915;-56
2023/01/04 02:38:24;;;;;;;;;;;7.60;99.90;;;;;;5034045;28;19916;-53
2023/01/04 02:41:08;;;;;;;;;;;7.70;99.90;;;;;;5028656;28;19909;-54
2023/01/04 02:46:48;;;;;;;;;;;7.70;99.90;;;;;;5034064;28;19974;-55
2023/01/04 02:51:58;;;;;;;;;;;7.70;99.90;;;;;;5034202;28;20347;-55
2023/01/04 02:54:26;;;;;;;;;;;7.60;99.90;;;;;;5034104;28;19992;-57
2023/01/04 02:57:03;;;;;;;;;;;7.60;99.90;;;;;;5054581;22;19925;-51
2023/01/04 02:59:29;;;;;;;;;;;7.60;99.90;;;;;;5053423;28;20349;-49
2023/01/04 03:08:10;;;;;;;;;;;7.70;99.90;;;;;;5053139;28;19916;-51
2023/01/04 03:10:36;;;;;;;;;;;7.70;99.90;;;;;;5053488;28;19913;-52
2023/01/04 03:13:12;;;;;;;;;;;7.70;99.90;;;;;;5053856;28;19970;-54
2023/01/04 03:15:39;;;;;;;;;;;7.70;99.90;;;;;;5053733;28;19909;-51
2023/01/04 03:18:05;;;;;;;;;;;7.70;99.90;;;;;;5053407;28;19913;-49
2023/01/04 03:20:31;;;;;;;;;;;7.70;99.90;;;;;;5053261;28;19991;-51
2023/01/04 03:37:04;;;;;;;;;;;8.00;99.90;;;;;;5053049;28;20023;-49
2023/01/04 03:48:33;;;;;;;;;;;8.30;99.90;;;;;;5052997;28;19935;-54
2023/01/04 03:51:01;;;;;;;;;;;8.40;99.90;;;;;;5052967;28;20236;-51
2023/01/04 03:53:27;;;;;;;;;;;8.50;99.90;;;;;;5052827;28;20424;-50
2023/01/04 03:55:54;;;;;;;;;;;8.60;99.90;;;;;;5052935;28;19908;-50
2023/01/04 03:58:20;;;;;;;;;;;8.60;99.90;;;;;;5052579;28;19919;-53
2023/01/04 04:00:46;;;;;;;;;;;8.70;99.90;;;;;;5052506;28;19912;-49
2023/01/04 04:03:12;;;;;;;;;;;8.60;99.90;;;;;;5052751;28;20395;-50
2023/01/04 04:08:29;;;;;;;;;;;8.70;99.90;;;;;;5052423;28;19961;-54
2023/01/04 04:13:43;;;;;;;;;;;8.70;99.90;;;;;;5052866;28;19961;-51
2023/01/04 04:16:09;;;;;;;;;;;8.60;99.90;;;;;;5052696;28;19909;-48
2023/01/04 04:18:35;;;;;;;;;;;8.70;99.90;;;;;;5052141;28;19919;-50
2023/01/04 04:21:00;;;;;;;;;;;8.70;99.90;;;;;;5052360;28;19940;-50
2023/01/04 04:23:26;;;;;;;;;;;8.80;99.90;;;;;;5052241;28;19982;-49
2023/01/04 04:25:51;;;;;;;;;;;8.70;99.90;;;;;;5052245;28;20365;-50
2023/01/04 04:28:17;;;;;;;;;;;8.70;99.90;;;;;;5052274;28;19927;-52
2023/01/04 04:30:42;;;;;;;;;;;8.80;99.90;;;;;;5051774;28;19912;-50
2023/01/04 04:33:08;;;;;;;;;;;8.80;99.90;;;;;;5050537;28;19940;-49
2023/01/04 04:35:34;;;;;;;;;;;8.80;99.90;;;;;;5052612;28;19915;-49
2023/01/04 04:37:59;;;;;;;;;;;8.80;99.90;;;;;;5050597;28;19916;-52
2023/01/04 04:43:09;;;;;;;;;;;8.90;99.90;;;;;;5051968;28;20007;-53
2023/01/04 04:45:35;;;;;;;;;;;8.90;99.90;;;;;;5052047;28;19947;-54
2023/01/04 04:48:00;;;;;;;;;;;9.00;99.90;;;;;;5051807;28;20269;-52
2023/01/04 04:50:26;;;;;;;;;;;9.00;99.90;;;;;;5051531;28;19916;-51
2023/01/04 04:52:52;;;;;;;;;;;9.00;99.90;;;;;;5051641;28;19908;-50
2023/01/04 04:55:17;;;;;;;;;;;9.00;99.90;;;;;;5051865;28;19913;-51
2023/01/04 04:57:43;;;;;;;;;;;9.10;99.90;;;;;;5051463;28;20328;-52
2023/01/04 05:00:09;;;;;;;;;;;9.20;99.90;;;;;;5051600;28;19909;-53
2023/01/04 05:02:34;;;;;;;;;;;9.20;99.90;;;;;;5051765;28;20118;-48
2023/01/04 05:05:00;;;;;;;;;;;9.20;99.90;;;;;;5051693;28;20003;-49
2023/01/04 05:07:25;;;;;;;;;;;9.10;99.90;;;;;;5050147;28;19913;-48
2023/01/04 05:09:51;;;;;;;;;;;9.20;99.90;;;;;;5051205;28;19959;-48
2023/01/04 05:15:01;;;;;;;;;;;9.30;99.90;;;;;;5051868;28;19908;-49
2023/01/04 05:17:27;;;;;;;;;;;9.40;99.90;;;;;;5051119;28;19919;-48
2023/01/04 05:19:53;;;;;;;;;;;9.40;99.90;;;;;;5051563;28;19991;-49
2023/01/04 05:22:18;;;;;;;;;;;9.40;99.90;;;;;;5051180;28;20107;-51
2023/01/04 05:24:44;;;;;;;;;;;9.40;99.90;;;;;;5051050;28;19960;-49
2023/01/04 05:27:09;;;;;;;;;;;9.50;99.90;;;;;;5051098;28;19916;-49
2023/01/04 05:32:19;;;;;;;;;;;9.60;99.90;;;;;;5051024;28;20369;-50
2023/01/04 05:34:45;;;;;;;;;;;9.60;99.90;;;;;;5051089;28;19913;-49
2023/01/04 05:37:10;;;;;;;;;;;9.60;99.90;;;;;;5050992;28;19943;-48
2023/01/04 05:39:36;;;;;;;;;;;9.70;99.90;;;;;;5050953;28;20012;-49
2023/01/04 05:44:45;;;;;;;;;;;9.80;99.90;;;;;;5050208;28;19959;-50
2023/01/04 05:47:11;;;;;;;;;;;9.80;99.90;;;;;;5050557;28;19916;-50
2023/01/04 05:49:36;;;;;;;;;;;9.80;99.90;;;;;;5049525;28;19908;-49
2023/01/04 05:52:02;;;;;;;;;;;9.80;99.90;;;;;;5050801;28;20055;-50
2023/01/04 05:54:28;;;;;;;;;;;9.80;99.90;;;;;;5051018;28;19959;-49
2023/01/04 05:56:53;;;;;;;;;;;9.80;99.90;;;;;;5050478;28;19999;-51
2023/01/04 05:59:19;;;;;;;;;;;9.90;99.90;;;;;;5050646;28;19909;-50
2023/01/04 06:01:44;;;;;;;;;;;9.90;99.90;;;;;;5050693;28;19916;-50
2023/01/04 06:04:10;;;;;;;;;;;10.00;99.90;;;;;;5050866;28;19909;-49
2023/01/04 06:06:36;;;;;;;;;;;10.10;99.90;;;;;;5050604;28;19909;-49
2023/01/04 06:09:01;;;;;;;;;;;10.10;99.90;;;;;;5050567;28;19909;-49
2023/01/04 06:11:27;;;;;;;;;;;10.10;99.90;;;;;;5050678;28;19917;-49
2023/01/04 06:13:52;;;;;;;;;;;10.10;99.90;;;;;;5050729;28;20343;-49
2023/01/04 06:16:18;;;;;;;;;;;10.10;99.90;;;;;;5050354;28;19913;-49
2023/01/04 06:18:44;;;;;;;;;;;10.10;99.90;;;;;;5050412;28;19905;-50
2023/01/04 06:21:09;;;;;;;;;;;10.20;99.90;;;;;;5050715;28;19920;-54
2023/01/04 06:23:35;;;;;;;;;;;10.10;99.90;;;;;;5050499;28;20023;-51
2023/01/04 06:26:00;;;;;;;;;;;10.10;99.90;;;;;;5050537;28;19912;-48
2023/01/04 06:28:26;;;;;;;;;;;10.20;99.90;;;;;;5050301;28;19913;-48
2023/01/04 06:30:51;;;;;;;;;;;10.20;99.90;;;;;;5050188;28;19920;-53
2023/01/04 06:33:17;;;;;;;;;;;10.20;99.90;;;;;;5050436;28;19960;-51
2023/01/04 06:35:43;;;;;;;;;;;10.20;99.90;;;;;;5050553;28;19909;-53
2023/01/04 06:38:08;;;;;;;;;;;10.30;99.90;;;;;;5050377;28;19934;-50
2023/01/04 06:40:34;;;;;;;;;;;10.20;99.90;;;;;;5050149;28;19923;-49
2023/01/04 06:42:59;;;;;;;;;;;10.30;99.90;;;;;;5050440;28;19918;-48
2023/01/04 06:45:25;;;;;;;;;;;10.30;99.90;;;;;;5050218;28;19960;-51
2023/01/04 06:47:50;;;;;;;;;;;10.30;99.90;;;;;;5050024;28;19916;-47
2023/01/04 06:50:16;;;;;;;;;;;10.40;99.90;;;;;;5050062;28;19920;-49
2023/01/04 06:52:42;;;;;;;;;;;10.40;99.90;;;;;;5050301;28;19951;-47
2023/01/04 06:55:10;;;;;;;;;;;10.40;99.90;;;;;;5051922;28;19999;-48
2023/01/04 06:57:36;;;;;;;;;;;10.40;99.90;;;;;;5053609;28;19916;-51
2023/01/04 07:00:03;;;;;;;;;;;10.50;99.90;;;;;;5053692;28;19915;-49
2023/01/04 07:02:28;;;;;;;;;;;10.50;99.90;;;;;;5053919;28;19915;-49
2023/01/04 07:04:54;;;;;;;;;;;10.60;99.90;;;;;;5053943;28;19908;-48
2023/01/04 07:07:19;;;;;;;;;;;10.60;99.90;;;;;;5053499;28;19928;-48
2023/01/04 07:09:45;;;;;;;;;;;10.60;99.90;;;;;;5053553;28;19919;-48
2023/01/04 07:12:11;;;;;;;;;;;10.60;99.90;;;;;;5053724;28;19913;-50
2023/01/04 07:14:36;;;;;;;;;;;10.60;99.90;;;;;;5053669;28;19908;-51
2023/01/04 07:17:02;;;;;;;;;;;10.70;99.90;;;;;;5053314;28;19909;-51
2023/01/04 07:19:27;;;;;;;;;;;10.60;99.90;;;;;;5053322;28;20006;-50
2023/01/04 07:21:53;;;;;;;;;;;10.60;99.90;;;;;;5053662;28;19935;-51
2023/01/04 07:24:19;;;;;;;;;;;10.70;99.90;;;;;;5053569;28;20414;-51
2023/01/04 07:26:45;;;;;;;;;;;10.80;99.90;;;;;;5053138;28;19920;-51
2023/01/04 07:29:18;;;;;;;;;;;10.80;99.90;;;;;;5051706;28;19917;-51
2023/01/04 07:31:46;;;;;;;;;;;10.90;99.90;;;;;;5053407;28;19912;-52
2023/01/04 07:34:13;;;;;;;;;;;10.80;99.90;;;;;;5053456;28;19909;-51
2023/01/04 07:36:39;;;;;;;;;;;10.80;99.90;;;;;;5052987;28;19908;-51
2023/01/04 07:39:05;;;;;;;;;;;10.80;99.90;;;;;;5053018;28;20306;-51
2023/01/04 07:41:30;;;;;;;;;;;10.80;99.90;;;;;;5052985;28;19909;-51
2023/01/04 07:43:56;;;;;;;;;;;10.90;99.90;;;;;;5053133;28;20004;-50
2023/01/04 07:46:22;;;;;;;;;;;11.00;99.90;;;;;;5051650;28;20262;-50
2023/01/04 07:48:47;;;;;;;;;;;11.00;99.90;;;;;;5052965;28;19908;-48
2023/01/04 07:51:13;;;;;;;;;;;11.00;99.90;;;;;;5052878;28;19912;-50
2023/01/04 07:53:38;;;;;;;;;;;11.00;99.90;;;;;;5052972;28;19915;-47
2023/01/04 07:56:04;;;;;;;;;;;11.10;99.90;;;;;;5052692;28;20438;-48
2023/01/04 07:58:31;;;;;;;;;;;11.00;99.90;;;;;;5052550;28;19913;-48
2023/01/04 08:01:04;;;;;;;;;;;11.10;99.90;;;;;;5052689;28;19909;-49
2023/01/04 08:03:30;;;;;;;;;;;11.10;99.90;;;;;;5052686;28;19912;-51
2023/01/04 08:05:56;;;;;;;;;;;11.10;99.90;;;;;;5052026;28;19916;-50
2023/01/04 08:08:21;;;;;;;;;;;11.10;99.90;;;;;;5052283;28;20323;-50
2023/01/04 08:10:47;;;;;;;;;;;11.10;99.90;;;;;;5052159;28;19920;-48
2023/01/04 08:13:12;;;;;;;;;;;11.10;99.90;;;;;;5052872;28;20169;-49
2023/01/04 08:15:38;;;;;;;;;;;11.20;99.90;;;;;;5052646;28;19955;-49
2023/01/04 08:18:03;;;;;;;;;;;11.20;99.90;;;;;;5052092;28;19909;-48
2023/01/04 08:20:29;;;;;;;;;;;11.20;99.90;;;;;;5052252;28;20254;-47
2023/01/04 08:22:55;;;;;;;;;;;11.30;99.90;;;;;;5052424;28;19958;-50
2023/01/04 08:25:20;;;;;;;;;;;11.20;99.90;;;;;;5052307;28;20000;-49
2023/01/04 08:27:46;;;;;;;;;;;11.20;99.90;;;;;;5051975;28;20345;-48
2023/01/04 08:30:11;;;;;;;;;;;11.20;99.90;;;;;;5051896;28;19922;-49
2023/01/04 08:32:38;;;;;;;;;;;11.30;99.90;;;;;;5052145;28;19963;-48
2023/01/04 08:35:04;;;;;;;;;;;11.30;99.90;;;;;;5052213;28;19951;-50
2023/01/04 08:37:30;;;;;;;;;;;11.30;99.90;;;;;;5051786;28;19989;-48
2023/01/04 08:39:56;;;;;;;;;;;11.30;99.90;;;;;;5051735;28;19916;-48
2023/01/04 08:42:22;;;;;;;;;;;11.30;99.90;;;;;;5051994;28;19912;-48
2023/01/04 08:44:48;;;;;;;;;;;11.40;99.90;;;;;;5052114;28;19908;-50
2023/01/04 08:47:13;;;;;;;;;;;11.40;99.90;;;;;;5051817;28;20489;-47
2023/01/04 08:49:39;;;;;;;;;;;11.40;99.90;;;;;;5051718;28;19908;-49
2023/01/04 08:52:04;;;;;;;;;;;11.50;99.90;;;;;;5051716;28;19942;-48
2023/01/04 08:54:31;;;;;;;;;;;11.50;99.90;;;;;;5051742;28;19931;-48
2023/01/04 08:56:56;;;;;;;;;;;11.50;99.90;;;;;;5062819;22;20373;-51
2023/01/04 08:59:22;;;;;;;;;;;11.50;99.90;;;;;;5051232;28;20012;-53
2023/01/04 09:01:48;;;;;;;;;;;11.50;99.90;;;;;;5051488;28;19921;-52
2023/01/04 09:04:13;;;;;;;;;;;11.50;99.90;;;;;;5051662;28;19908;-54
2023/01/04 09:06:39;;;;;;;;;;;11.50;99.90;;;;;;5051171;28;19913;-53
2023/01/04 09:09:04;;;;;;;;;;;11.40;99.90;;;;;;5051235;28;20448;-54
2023/01/04 09:11:30;;;;;;;;;;;11.50;99.90;;;;;;5051239;28;20403;-53
2023/01/04 09:13:57;;;;;;;;;;;11.40;99.90;;;;;;5051530;28;19954;-51
2023/01/04 09:16:23;;;;;;;;;;;11.40;99.90;;;;;;5051164;28;20331;-54
2023/01/04 09:18:48;;;;;;;;;;;11.40;99.90;;;;;;5050924;28;20003;-53
2023/01/04 09:21:19;;;;;;;;;;;11.40;99.90;;;;;;5051176;28;20273;-54
2023/01/04 09:23:45;;;;;;;;;;;11.40;99.90;;;;;;5051075;28;19915;-52
2023/01/04 09:26:12;;;;;;;;;;;11.40;99.90;;;;;;5051291;28;19909;-52
2023/01/04 09:28:38;;;;;;;;;;;11.40;99.90;;;;;;5050731;28;19920;-51
2023/01/04 09:31:04;;;;;;;;;;;11.50;99.90;;;;;;5051041;28;19917;-51
2023/01/04 09:33:30;;;;;;;;;;;11.40;99.90;;;;;;5051097;28;20332;-55
2023/01/04 09:35:59;;;;;;;;;;;11.30;99.90;;;;;;5051036;28;19916;-54
2023/01/04 09:38:25;;;;;;;;;;;11.20;99.90;;;;;;5050705;28;20285;-53
2023/01/04 09:41:09;;;;;;;;;;;11.20;99.90;;;;;;5050732;28;19912;-54
2023/01/04 09:43:41;;;;;;;;;;;11.20;99.90;;;;;;5051019;28;20027;-52
2023/01/04 09:46:08;;;;;;;;;;;11.30;99.90;;;;;;5051022;28;19912;-54
2023/01/04 09:48:35;;;;;;;;;;;11.30;99.90;;;;;;5050497;28;19913;-54
2023/01/04 09:51:03;;;;;;;;;;;11.40;99.90;;;;;;5051276;28;19943;-53
2023/01/04 09:53:42;;;;;;;;;;;11.30;99.90;;;;;;5050937;28;19909;-54
2023/01/04 09:56:09;;;;;;;;;;;11.40;99.90;;;;;;5050876;28;19967;-53
2023/01/04 09:58:35;;;;;;;;;;;11.40;99.90;;;;;;5050222;28;20316;-54
2023/01/04 10:01:01;;;;;;;;;;;11.50;99.90;;;;;;5050748;28;19905;-55
2023/01/04 10:03:28;;;;;;;;;;;11.50;99.90;;;;;;5050826;28;20295;-55
2023/01/04 10:05:54;;;;;;;;;;;11.50;99.90;;;;;;5050902;28;20007;-56
2023/01/04 10:08:20;;;;;;;;;;;11.50;99.90;;;;;;5050478;28;20187;-53
2023/01/04 10:10:48;;;;;;;;;;;11.40;99.90;;;;;;5050352;28;19913;-51
2023/01/04 10:13:28;;;;;;;;;;;11.40;99.90;;;;;;5050766;28;19919;-53
2023/01/04 10:16:00;;;;;;;;;;;11.40;99.90;;;;;;5049297;28;20369;-55
2023/01/04 10:18:31;;;;;;;;;;;11.40;99.90;;;;;;5050407;28;19909;-53
2023/01/04 10:21:02;;;;;;;;;;;11.50;99.90;;;;;;5050609;28;19908;-55
2023/01/04 10:23:28;;;;;;;;;;;11.50;99.90;;;;;;5050658;28;19913;-55
2023/01/04 10:26:03;;;;;;;;;;;11.50;99.90;;;;;;5050561;28;19940;-55
2023/01/04 10:28:38;;;;;;;;;;;11.50;99.90;;;;;;5050114;28;19909;-54
2023/01/04 10:31:08;;;;;;;;;;;11.40;99.90;;;;;;5053510;28;19913;-55
2023/01/04 10:33:47;;;;;;;;;;;11.50;99.90;;;;;;5054442;28;20007;-53
2023/01/04 10:36:16;;;;;;;;;;;11.40;99.90;;;;;;5054252;28;19931;-54
2023/01/04 10:38:42;;;;;;;;;;;11.40;99.90;;;;;;5053976;28;20182;-52
2023/01/04 10:41:10;;;;;;;;;;;11.50;99.90;;;;;;5054176;28;20269;-53
2023/01/04 10:43:54;;;;;;;;;;;11.50;99.90;;;;;;5054421;28;19909;-54
2023/01/04 10:46:24;;;;;;;;;;;11.50;99.90;;;;;;5054034;28;19970;-54
2023/01/04 10:49:06;;;;;;;;;;;11.60;99.90;;;;;;5053943;28;20231;-54
2023/01/04 10:51:36;;;;;;;;;;;11.60;99.90;;;;;;5054275;28;20013;-53
2023/01/04 10:54:28;;;;;;;;;;;11.60;99.90;;;;;;5054084;28;20399;-53
2023/01/04 10:56:59;;;;;;;;;;;11.60;99.90;;;;;;5049627;28;19938;-53
2023/01/04 10:59:25;;;;;;;;;;;11.60;99.90;;;;;;5053615;28;20000;-55
2023/01/04 11:01:52;;;;;;;;;;;11.70;99.90;;;;;;5053811;28;20355;-55
2023/01/04 11:04:26;;;;;;;;;;;11.70;99.90;;;;;;5054112;28;19917;-54
2023/01/04 11:07:00;;;;;;;;;;;11.70;99.90;;;;;;5053599;28;19909;-54
2023/01/04 11:09:31;;;;;;;;;;;11.70;99.90;;;;;;5053584;28;19908;-54
2023/01/04 11:11:57;;;;;;;;;;;11.70;99.90;;;;;;5053418;28;19912;-55
2023/01/04 11:14:24;;;;;;;;;;;11.70;99.90;;;;;;5053808;28;19967;-53
2023/01/04 11:16:51;;;;;;;;;;;11.80;99.90;;;;;;5053388;28;19955;-54
2023/01/04 11:19:16;;;;;;;;;;;11.80;99.90;;;;;;5053463;28;19909;-51
2023/01/04 11:21:46;;;;;;;;;;;11.80;99.90;;;;;;5053407;28;20384;-55
2023/01/04 11:24:13;;;;;;;;;;;11.70;99.90;;;;;;5053327;28;20389;-55
2023/01/04 11:26:42;;;;;;;;;;;11.80;99.90;;;;;;5053120;28;19965;-53
2023/01/04 11:29:31;;;;;;;;;;;11.80;99.90;;;;;;5053403;28;19909;-55
2023/01/04 11:32:00;;;;;;;;;;;11.80;99.90;;;;;;5042565;28;19919;-56
2023/01/04 11:34:46;;;;;;;;;;;11.90;99.90;;;;;;5053208;28;20362;-53
2023/01/04 11:37:28;;;;;;;;;;;11.80;99.90;;;;;;5052326;28;19909;-52
2023/01/04 11:40:12;;;;;;;;;;;11.90;99.90;;;;;;5053111;28;20296;-55
2023/01/04 11:42:38;;;;;;;;;;;11.90;99.90;;;;;;5051980;28;20301;-55
2023/01/04 11:45:04;;;;;;;;;;;11.90;99.90;;;;;;5053069;28;19915;-57
2023/01/04 11:47:29;;;;;;;;;;;12.00;99.90;;;;;;5052782;28;19909;-53
2023/01/04 11:49:55;;;;;;;;;;;12.00;99.90;;;;;;5053042;28;19916;-53
2023/01/04 11:52:34;;;;;;;;;;;12.00;99.90;;;;;;5052899;28;19928;-52
2023/01/04 11:55:18;;;;;;;;;;;12.00;99.90;;;;;;5053286;28;20257;-56
2023/01/04 11:57:44;;;;;;;;;;;11.90;99.90;;;;;;5052445;28;19920;-54
2023/01/04 12:00:13;;;;;;;;;;;11.90;99.90;;;;;;5052647;28;19904;-53
2023/01/04 12:02:39;;;;;;;;;;;12.00;99.90;;;;;;5052800;28;19916;-54
2023/01/04 12:05:34;;;;;;;;;;;12.10;99.90;;;;;;5052900;28;19908;-55
2023/01/04 12:07:59;;;;;;;;;;;12.00;99.90;;;;;;5035469;28;19908;-54
2023/01/04 12:10:26;;;;;;;;;;;11.90;99.90;;;;;;5052561;28;20392;-53
2023/01/04 12:12:52;;;;;;;;;;;11.80;99.90;;;;;;5052903;28;20281;-54
2023/01/04 12:15:39;;;;;;;;;;;11.80;99.90;;;;;;5052930;28;19935;-55
2023/01/04 12:18:16;;;;;;;;;;;11.70;99.90;;;;;;5052513;28;20012;-55
2023/01/04 12:20:42;;;;;;;;;;;11.70;99.90;;;;;;5053073;28;19909;-54
2023/01/04 12:23:08;;;;;;;;;;;11.70;99.90;;;;;;5052753;28;19996;-55
2023/01/04 12:25:38;;;;;;;;;;;11.70;99.90;;;;;;5052906;28;20339;-55
2023/01/04 12:28:04;;;;;;;;;;;11.70;99.90;;;;;;5052293;28;20412;-56
2023/01/04 12:30:37;;;;;;;;;;;11.60;99.90;;;;;;5052385;28;20019;-54
2023/01/04 12:33:21;;;;;;;;;;;11.60;99.90;;;;;;5052480;28;19971;-53
2023/01/04 12:36:19;;;;;;;;;;;11.70;99.90;;;;;;5052439;28;20293;-52
2023/01/04 12:38:51;;;;;;;;;;;11.60;99.90;;;;;;5007814;28;20435;-56
2023/01/04 12:41:32;;;;;;;;;;;11.60;99.90;;;;;;5052313;28;19909;-55
2023/01/04 12:43:57;;;;;;;;;;;11.60;99.90;;;;;;5052197;28;19913;-55
2023/01/04 12:49:25;;;;;;;;;;;11.70;99.90;;;;;;5052067;28;20369;-53
2023/01/04 12:52:09;;;;;;;;;;;11.70;99.90;;;;;;5051886;28;20007;-54
2023/01/04 12:54:45;;;;;;;;;;;11.70;99.90;;;;;;5052087;28;20007;-55
2023/01/04 12:57:17;;;;;;;;;;;11.70;99.90;;;;;;5051634;28;19912;-53
2023/01/04 12:59:53;;;;;;;;;;;11.80;99.90;;;;;;5051738;28;19909;-51
2023/01/04 13:02:23;;;;;;;;;;;11.80;99.90;;;;;;5051924;28;19944;-53
2023/01/04 13:04:59;;;;;;;;;;;11.80;99.90;;;;;;5052318;28;20280;-54
2023/01/04 13:07:30;;;;;;;;;;;11.90;99.90;;;;;;5051596;28;20350;-52
2023/01/04 13:09:57;;;;;;;;;;;11.90;99.90;;;;;;5051627;28;19908;-54
2023/01/04 13:12:42;;;;;;;;;;;11.90;99.90;;;;;;5051657;28;19913;-54
2023/01/04 13:15:20;;;;;;;;;;;12.00;99.90;;;;;;5051519;28;20312;-54
2023/01/04 13:17:46;;;;;;;;;;;12.00;99.90;;;;;;5051533;28;19995;-54
2023/01/04 13:20:14;;;;;;;;;;;12.00;99.90;;;;;;5051493;28;20333;-51
2023/01/04 13:22:45;;;;;;;;;;;12.00;99.90;;;;;;5051790;28;19999;-56
2023/01/04 13:25:12;;;;;;;;;;;12.10;99.90;;;;;;5051618;28;19915;-55
2023/01/04 13:27:37;;;;;;;;;;;12.10;99.90;;;;;;5051228;28;19920;-56
2023/01/04 13:30:03;;;;;;;;;;;12.10;99.90;;;;;;5051328;28;19908;-54
2023/01/04 13:32:30;;;;;;;;;;;12.10;99.90;;;;;;5051572;28;19909;-55
2023/01/04 13:34:58;;;;;;;;;;;12.10;99.90;;;;;;5051554;28;19916;-55
2023/01/04 13:37:39;;;;;;;;;;;12.10;99.90;;;;;;5051190;28;20330;-55
2023/01/04 13:40:10;;;;;;;;;;;12.10;99.90;;;;;;5050973;28;19909;-54
2023/01/04 13:42:38;;;;;;;;;;;12.20;99.90;;;;;;5051382;28;19929;-54
2023/01/04 13:45:16;;;;;;;;;;;12.20;99.90;;;;;;5051427;28;19909;-55
2023/01/04 13:47:43;;;;;;;;;;;12.20;99.90;;;;;;5051082;28;19909;-55
2023/01/04 13:50:20;;;;;;;;;;;12.30;99.90;;;;;;5050935;28;20046;-57
2023/01/04 13:52:46;;;;;;;;;;;12.30;99.90;;;;;;5051140;28;19908;-54
2023/01/04 13:55:12;;;;;;;;;;;12.30;99.90;;;;;;5051360;28;19909;-55
2023/01/04 13:57:37;;;;;;;;;;;12.30;99.90;;;;;;5051063;28;20420;-52
2023/01/04 14:00:04;;;;;;;;;;;12.30;99.90;;;;;;5050951;28;19904;-54
2023/01/04 14:02:36;;;;;;;;;;;12.30;99.90;;;;;;5051264;28;19932;-54
2023/01/04 14:05:02;;;;;;;;;;;12.30;99.90;;;;;;5052962;28;20357;-57
2023/01/04 14:07:28;;;;;;;;;;;12.20;99.90;;;;;;5054887;28;20015;-55
2023/01/04 14:09:56;;;;;;;;;;;12.20;99.90;;;;;;5054932;28;19952;-54
2023/01/04 14:12:26;;;;;;;;;;;12.20;99.90;;;;;;5055151;28;19912;-57
2023/01/04 14:14:57;;;;;;;;;;;12.10;99.90;;;;;;5055312;28;19908;-52
2023/01/04 14:17:34;;;;;;;;;;;12.10;99.90;;;;;;5054852;28;19908;-51
2023/01/04 14:20:00;;;;;;;;;;;12.10;99.90;;;;;;5055002;28;19915;-55
2023/01/04 14:22:31;;;;;;;;;;;12.10;99.90;;;;;;5055164;28;19916;-51
2023/01/04 14:24:58;;;;;;;;;;;12.00;99.90;;;;;;5055110;28;19912;-56
2023/01/04 14:27:30;;;;;;;;;;;11.90;99.90;;;;;;5054777;28;20283;-54
2023/01/04 14:29:56;;;;;;;;;;;11.90;99.90;;;;;;5054534;28;20022;-55
2023/01/04 14:32:22;;;;;;;;;;;11.90;99.90;;;;;;5054890;28;20400;-53
2023/01/04 14:34:48;;;;;;;;;;;11.90;99.90;;;;;;5053596;28;19966;-56
2023/01/04 14:37:13;;;;;;;;;;;11.90;99.90;;;;;;5054605;28;19913;-56
2023/01/04 14:39:39;;;;;;;;;;;11.90;99.90;;;;;;5054382;28;19909;-55
2023/01/04 14:42:12;;;;;;;;;;;11.90;99.90;;;;;;5054746;28;19908;-56
2023/01/04 14:44:40;;;;;;;;;;;11.90;99.90;;;;;;5054758;28;19938;-54
2023/01/04 14:47:09;;;;;;;;;;;11.90;99.90;;;;;;5054423;28;19908;-55
2023/01/04 14:49:35;;;;;;;;;;;11.90;99.90;;;;;;5054532;28;19999;-56
2023/01/04 14:52:01;;;;;;;;;;;11.80;99.90;;;;;;5054441;28;20355;-54
2023/01/04 14:54:28;;;;;;;;;;;11.80;99.90;;;;;;5054537;28;19909;-57
2023/01/04 14:56:54;;;;;;;;;;;11.70;99.90;;;;;;5054138;28;19938;-54
2023/01/04 14:59:22;;;;;;;;;;;11.70;99.90;;;;;;5054296;28;19909;-56
2023/01/04 15:01:49;;;;;;;;;;;11.80;99.90;;;;;;5054210;28;19912;-55
2023/01/04 15:04:14;;;;;;;;;;;11.80;99.90;;;;;;5054301;28;19954;-53
2023/01/04 15:06:47;;;;;;;;;;;11.80;99.90;;;;;;5053974;28;19908;-54
2023/01/04 15:09:13;;;;;;;;;;;11.80;99.90;;;;;;5054069;28;19915;-52
2023/01/04 15:11:39;;;;;;;;;;;11.90;99.90;;;;;;5054051;28;20015;-51
2023/01/04 15:14:05;;;;;;;;;;;11.80;99.90;;;;;;5054092;28;19951;-53
2023/01/04 15:16:30;;;;;;;;;;;11.90;99.90;;;;;;5053579;28;19908;-55
2023/01/04 15:18:56;;;;;;;;;;;12.00;99.90;;;;;;5054155;28;19916;-54
2023/01/04 15:21:21;;;;;;;;;;;12.00;99.90;;;;;;5054020;28;19958;-56